sensor_id;sensor_type;location;lat;lon;timestamp;pressure;altitude;pressure_sealevel;temperature;humidity
75505;BME280;64085;54.974;73.410;2023-03-11T00:01:24;99873.06;;;0.80;49.45
75505;BME280;64085;54.974;73.410;2023-03-11T00:03:50;99876.13;;;1.33;48.95
75505;BME280;64085;54.974;73.410;2023-03-11T00:06:16;99872.38;;;0.88;49.15
75505;BME280;64085;54.974;73.410;2023-03-11T00:08:41;99861.91;;;1.09;49.71
75505;BME280;64085;54.974;73.410;2023-03-11T00:11:07;99846.75;;;0.75;49.40
75505;BME280;64085;54.974;73.410;2023-03-11T00:13:33;99850.53;;;0.93;48.97
75505;BME280;64085;54.974;73.410;2023-03-11T00:16:00;99852.13;;;1.22;49.57
75505;BME280;64085;54.974;73.410;2023-03-11T00:18:27;99854.47;;;1.15;48.76
75505;BME280;64085;54.974;73.410;2023-03-11T00:20:57;99844.06;;;1.03;49.10
75505;BME280;64085;54.974;73.410;2023-03-11T00:23:24;99837.94;;;1.11;48.68
75505;BME280;64085;54.974;73.410;2023-03-11T00:25:50;99850.63;;;1.29;48.34
75505;BME280;64085;54.974;73.410;2023-03-11T00:28:17;99844.88;;;0.90;48.83
75505;BME280;64085;54.974;73.410;2023-03-11T00:30:44;99835.91;;;0.89;49.02
75505;BME280;64085;54.974;73.410;2023-03-11T00:33:13;99841.16;;;1.13;49.00
75505;BME280;64085;54.974;73.410;2023-03-11T00:35:40;99825.13;;;0.98;49.39
75505;BME280;64085;54.974;73.410;2023-03-11T00:38:07;99829.50;;;0.52;49.64
75505;BME280;64085;54.974;73.410;2023-03-11T00:40:35;99824.38;;;0.65;50.00
75505;BME280;64085;54.974;73.410;2023-03-11T00:43:01;99818.25;;;0.73;49.41
75505;BME280;64085;54.974;73.410;2023-03-11T00:45:28;99816.44;;;1.23;49.21
75505;BME280;64085;54.974;73.410;2023-03-11T00:47:54;99819.69;;;1.11;48.48
75505;BME280;64085;54.974;73.410;2023-03-11T00:50:28;99826.41;;;1.41;48.06
75505;BME280;64085;54.974;73.410;2023-03-11T00:52:55;99809.47;;;1.45;48.59
75505;BME280;64085;54.974;73.410;2023-03-11T00:55:24;99808.84;;;1.34;48.40
75505;BME280;64085;54.974;73.410;2023-03-11T00:57:52;99796.06;;;1.21;48.55
75505;BME280;64085;54.974;73.410;2023-03-11T01:00:20;99793.19;;;1.53;48.12
75505;BME280;64085;54.974;73.410;2023-03-11T01:02:46;99801.75;;;1.10;48.57
75505;BME280;64085;54.974;73.410;2023-03-11T01:05:12;99788.97;;;1.47;47.87
75505;BME280;64085;54.974;73.410;2023-03-11T01:07:38;99813.72;;;1.23;47.95
75505;BME280;64085;54.974;73.410;2023-03-11T01:10:05;99798.16;;;1.37;48.68
75505;BME280;64085;54.974;73.410;2023-03-11T01:12:31;99774.50;;;0.83;49.57
75505;BME280;64085;54.974;73.410;2023-03-11T01:14:57;99759.38;;;0.91;49.82
75505;BME280;64085;54.974;73.410;2023-03-11T01:17:22;99757.91;;;0.84;49.88
75505;BME280;64085;54.974;73.410;2023-03-11T01:19:48;99758.59;;;0.90;50.21
75505;BME280;64085;54.974;73.410;2023-03-11T01:22:14;99729.84;;;1.11;50.02
75505;BME280;64085;54.974;73.410;2023-03-11T01:24:40;99753.53;;;0.56;51.20
75505;BME280;64085;54.974;73.410;2023-03-11T01:27:06;99709.31;;;0.78;51.15
75505;BME280;64085;54.974;73.410;2023-03-11T01:29:32;99713.81;;;1.10;50.76
75505;BME280;64085;54.974;73.410;2023-03-11T01:31:58;99728.47;;;0.73;50.82
75505;BME280;64085;54.974;73.410;2023-03-11T01:34:23;99711.75;;;0.52;51.30
75505;BME280;64085;54.974;73.410;2023-03-11T01:36:49;99745.19;;;0.94;51.54
75505;BME280;64085;54.974;73.410;2023-03-11T01:39:15;99734.72;;;0.60;52.07
75505;BME280;64085;54.974;73.410;2023-03-11T01:41:40;99730.88;;;0.74;52.24
75505;BME280;64085;54.974;73.410;2023-03-11T01:44:06;99750.69;;;1.30;50.65
75505;BME280;64085;54.974;73.410;2023-03-11T01:49:16;99757.63;;;1.36;50.10
75505;BME280;64085;54.974;73.410;2023-03-11T01:51:45;99739.28;;;1.28;50.86
75505;BME280;64085;54.974;73.410;2023-03-11T01:54:37;99731.91;;;0.78;51.72
75505;BME280;64085;54.974;73.410;2023-03-11T01:57:06;99722.72;;;1.38;51.09
75505;BME280;64085;54.974;73.410;2023-03-11T01:59:39;99713.56;;;0.56;51.71
75505;BME280;64085;54.974;73.410;2023-03-11T02:02:29;99641.75;;;0.30;51.84
75505;BME280;64085;54.974;73.410;2023-03-11T02:04:58;99694.38;;;0.75;52.00
75505;BME280;64085;54.974;73.410;2023-03-11T02:07:26;99688.63;;;1.04;51.98
75505;BME280;64085;54.974;73.410;2023-03-11T02:09:52;99695.09;;;0.67;51.19
75505;BME280;64085;54.974;73.410;2023-03-11T02:12:18;99682.38;;;1.04;52.02
75505;BME280;64085;54.974;73.410;2023-03-11T02:14:48;99699.66;;;0.86;51.62
75505;BME280;64085;54.974;73.410;2023-03-11T02:17:16;99680.69;;;1.30;51.36
75505;BME280;64085;54.974;73.410;2023-03-11T02:22:23;99716.72;;;1.13;50.72
75505;BME280;64085;54.974;73.410;2023-03-11T02:25:27;99717.06;;;1.71;50.07
75505;BME280;64085;54.974;73.410;2023-03-11T02:27:52;99688.63;;;1.63;49.39
75505;BME280;64085;54.974;73.410;2023-03-11T02:30:21;99697.81;;;1.31;51.12
75505;BME280;64085;54.974;73.410;2023-03-11T02:32:48;99686.53;;;2.13;49.69
75505;BME280;64085;54.974;73.410;2023-03-11T02:35:15;99666.94;;;1.80;48.08
75505;BME280;64085;54.974;73.410;2023-03-11T02:37:49;99662.06;;;1.68;48.59
75505;BME280;64085;54.974;73.410;2023-03-11T02:42:49;99650.72;;;1.75;49.37
75505;BME280;64085;54.974;73.410;2023-03-11T02:45:17;99597.63;;;2.04;49.51
75505;BME280;64085;54.974;73.410;2023-03-11T02:47:45;99629.63;;;1.89;48.46
75505;BME280;64085;54.974;73.410;2023-03-11T02:50:13;99611.47;;;1.85;48.89
75505;BME280;64085;54.974;73.410;2023-03-11T02:52:40;99606.00;;;2.16;47.99
75505;BME280;64085;54.974;73.410;2023-03-11T02:55:06;99590.25;;;2.44;47.33
75505;BME280;64085;54.974;73.410;2023-03-11T02:57:32;99594.59;;;2.62;47.10
75505;BME280;64085;54.974;73.410;2023-03-11T02:59:58;99599.91;;;2.76;46.81
75505;BME280;64085;54.974;73.410;2023-03-11T03:02:26;99581.31;;;3.13;47.08
75505;BME280;64085;54.974;73.410;2023-03-11T03:04:52;99595.75;;;2.96;46.24
75505;BME280;64085;54.974;73.410;2023-03-11T03:07:17;99580.72;;;2.33;46.93
75505;BME280;64085;54.974;73.410;2023-03-11T03:09:43;99591.41;;;2.12;48.23
75505;BME280;64085;54.974;73.410;2023-03-11T03:12:09;99586.78;;;2.21;48.67
75505;BME280;64085;54.974;73.410;2023-03-11T03:14:35;99564.59;;;2.79;47.00
75505;BME280;64085;54.974;73.410;2023-03-11T03:17:01;99574.66;;;2.36;47.52
75505;BME280;64085;54.974;73.410;2023-03-11T03:19:26;99565.22;;;2.85;47.25
75505;BME280;64085;54.974;73.410;2023-03-11T03:21:52;99554.94;;;2.65;47.07
75505;BME280;64085;54.974;73.410;2023-03-11T03:24:18;99560.75;;;2.72;46.96
75505;BME280;64085;54.974;73.410;2023-03-11T03:26:43;99549.97;;;3.10;45.94
75505;BME280;64085;54.974;73.410;2023-03-11T03:29:09;99546.91;;;3.37;46.21
75505;BME280;64085;54.974;73.410;2023-03-11T03:31:35;99559.09;;;3.40;45.72
75505;BME280;64085;54.974;73.410;2023-03-11T03:34:00;99552.16;;;3.51;45.55
75505;BME280;64085;54.974;73.410;2023-03-11T03:36:26;99552.59;;;3.71;45.83
75505;BME280;64085;54.974;73.410;2023-03-11T03:38:55;99517.66;;;3.29;44.72
75505;BME280;64085;54.974;73.410;2023-03-11T03:41:21;99543.22;;;2.99;44.99
75505;BME280;64085;54.974;73.410;2023-03-11T03:43:48;99532.28;;;3.16;46.30
75505;BME280;64085;54.974;73.410;2023-03-11T03:46:13;99539.59;;;3.59;45.13
75505;BME280;64085;54.974;73.410;2023-03-11T03:48:39;99524.66;;;3.56;44.43
75505;BME280;64085;54.974;73.410;2023-03-11T03:51:10;99540.81;;;3.15;45.67
75505;BME280;64085;54.974;73.410;2023-03-11T03:53:36;99525.66;;;3.43;45.48
75505;BME280;64085;54.974;73.410;2023-03-11T03:56:04;99521.22;;;4.36;45.59
75505;BME280;64085;54.974;73.410;2023-03-11T03:58:30;99518.91;;;4.17;44.21
75505;BME280;64085;54.974;73.410;2023-03-11T04:00:56;99492.00;;;3.60;45.81
75505;BME280;64085;54.974;73.410;2023-03-11T04:03:26;99510.09;;;3.82;44.15
75505;BME280;64085;54.974;73.410;2023-03-11T04:05:52;99515.06;;;3.33;45.09
75505;BME280;64085;54.974;73.410;2023-03-11T04:08:18;99521.06;;;3.09;46.01
75505;BME280;64085;54.974;73.410;2023-03-11T04:10:44;99478.88;;;3.53;45.06
75505;BME280;64085;54.974;73.410;2023-03-11T04:13:20;99518.41;;;3.47;45.46
75505;BME280;64085;54.974;73.410;2023-03-11T04:15:45;99501.00;;;3.05;46.68
75505;BME280;64085;54.974;73.410;2023-03-11T04:18:11;99498.22;;;3.31;46.25
75505;BME280;64085;54.974;73.410;2023-03-11T04:20:37;99474.44;;;3.23;47.05
75505;BME280;64085;54.974;73.410;2023-03-11T04:23:03;99501.84;;;3.90;45.57
75505;BME280;64085;54.974;73.410;2023-03-11T04:25:29;99479.53;;;4.09;45.16
75505;BME280;64085;54.974;73.410;2023-03-11T04:27:54;99497.09;;;3.79;45.23
75505;BME280;64085;54.974;73.410;2023-03-11T04:30:20;99494.06;;;3.16;46.46
75505;BME280;64085;54.974;73.410;2023-03-11T04:32:46;99501.59;;;3.75;46.14
75505;BME280;64085;54.974;73.410;2023-03-11T04:35:12;99429.69;;;3.45;45.80
75505;BME280;64085;54.974;73.410;2023-03-11T04:37:37;99469.69;;;4.17;45.52
75505;BME280;64085;54.974;73.410;2023-03-11T04:40:03;99485.59;;;3.56;46.02
75505;BME280;64085;54.974;73.410;2023-03-11T04:42:30;99490.44;;;3.50;45.19
75505;BME280;64085;54.974;73.410;2023-03-11T04:44:56;99401.88;;;3.81;46.67
75505;BME280;64085;54.974;73.410;2023-03-11T04:47:21;99480.38;;;4.31;43.85
75505;BME280;64085;54.974;73.410;2023-03-11T04:49:47;99471.03;;;4.32;44.29
75505;BME280;64085;54.974;73.410;2023-03-11T04:52:13;99469.22;;;4.77;42.77
75505;BME280;64085;54.974;73.410;2023-03-11T04:54:39;99447.56;;;5.18;43.54
75505;BME280;64085;54.974;73.410;2023-03-11T04:57:05;99442.03;;;5.39;41.75
75505;BME280;64085;54.974;73.410;2023-03-11T04:59:30;99452.06;;;4.89;42.29
75505;BME280;64085;54.974;73.410;2023-03-11T05:01:56;99441.13;;;4.68;42.50
75505;BME280;64085;54.974;73.410;2023-03-11T05:04:22;99434.16;;;5.74;43.39
75505;BME280;64085;54.974;73.410;2023-03-11T05:06:47;99410.09;;;6.32;40.46
75505;BME280;64085;54.974;73.410;2023-03-11T05:09:15;99406.63;;;6.07;39.80
75505;BME280;64085;54.974;73.410;2023-03-11T05:11:41;99375.09;;;5.40;42.33
75505;BME280;64085;54.974;73.410;2023-03-11T05:14:07;99340.41;;;6.08;39.56
75505;BME280;64085;54.974;73.410;2023-03-11T05:16:33;99393.06;;;6.26;41.04
75505;BME280;64085;54.974;73.410;2023-03-11T05:18:58;99376.88;;;6.09;39.59
75505;BME280;64085;54.974;73.410;2023-03-11T05:21:24;99391.66;;;5.92;40.50
75505;BME280;64085;54.974;73.410;2023-03-11T05:23:50;99391.94;;;6.55;40.74
75505;BME280;64085;54.974;73.410;2023-03-11T05:26:15;99373.97;;;6.58;39.80
75505;BME280;64085;54.974;73.410;2023-03-11T05:28:41;99373.66;;;7.85;40.27
75505;BME280;64085;54.974;73.410;2023-03-11T05:31:08;99352.41;;;8.79;36.50
75505;BME280;64085;54.974;73.410;2023-03-11T05:33:34;99378.63;;;7.80;37.49
75505;BME280;64085;54.974;73.410;2023-03-11T05:36:05;99367.41;;;7.53;39.16
75505;BME280;64085;54.974;73.410;2023-03-11T05:38:31;99335.19;;;8.24;36.19
75505;BME280;64085;54.974;73.410;2023-03-11T05:40:57;99343.34;;;10.00;36.81
75505;BME280;64085;54.974;73.410;2023-03-11T05:43:22;99345.00;;;9.78;33.25
75505;BME280;64085;54.974;73.410;2023-03-11T05:45:48;99354.03;;;9.03;34.10
75505;BME280;64085;54.974;73.410;2023-03-11T05:48:14;99348.06;;;8.20;37.50
75505;BME280;64085;54.974;73.410;2023-03-11T05:50:39;99318.69;;;8.43;35.43
75505;BME280;64085;54.974;73.410;2023-03-11T05:53:05;99322.41;;;8.74;36.46
75505;BME280;64085;54.974;73.410;2023-03-11T05:55:30;99325.47;;;9.15;35.10
75505;BME280;64085;54.974;73.410;2023-03-11T05:57:56;99315.50;;;9.29;34.68
75505;BME280;64085;54.974;73.410;2023-03-11T06:00:22;99320.59;;;7.34;37.24
75505;BME280;64085;54.974;73.410;2023-03-11T06:02:48;99326.84;;;8.21;40.60
75505;BME280;64085;54.974;73.410;2023-03-11T06:05:13;99341.41;;;7.67;36.65
75505;BME280;64085;54.974;73.410;2023-03-11T06:07:39;99324.25;;;7.73;37.81
75505;BME280;64085;54.974;73.410;2023-03-11T06:10:05;99326.69;;;7.59;37.79
75505;BME280;64085;54.974;73.410;2023-03-11T06:12:33;99312.91;;;7.75;36.42
75505;BME280;64085;54.974;73.410;2023-03-11T06:14:59;99303.22;;;6.39;38.87
75505;BME280;64085;54.974;73.410;2023-03-11T06:17:25;99336.31;;;6.30;39.82
75505;BME280;64085;54.974;73.410;2023-03-11T06:19:51;99322.00;;;6.81;37.90
75505;BME280;64085;54.974;73.410;2023-03-11T06:22:16;99303.38;;;7.72;37.87
75505;BME280;64085;54.974;73.410;2023-03-11T06:24:42;99278.75;;;7.41;37.10
75505;BME280;64085;54.974;73.410;2023-03-11T06:27:07;99280.91;;;7.16;38.47
75505;BME280;64085;54.974;73.410;2023-03-11T06:29:35;99274.69;;;9.16;38.53
75505;BME280;64085;54.974;73.410;2023-03-11T06:32:01;99279.53;;;7.96;36.19
75505;BME280;64085;54.974;73.410;2023-03-11T06:34:26;99268.06;;;9.20;35.26
75505;BME280;64085;54.974;73.410;2023-03-11T06:36:52;99282.75;;;11.81;30.36
75505;BME280;64085;54.974;73.410;2023-03-11T06:39:19;99278.38;;;13.63;32.72
75505;BME280;64085;54.974;73.410;2023-03-11T06:41:44;99272.28;;;11.56;29.69
75505;BME280;64085;54.974;73.410;2023-03-11T06:44:10;99251.06;;;13.22;28.70
75505;BME280;64085;54.974;73.410;2023-03-11T06:46:36;99259.16;;;14.12;29.45
75505;BME280;64085;54.974;73.410;2023-03-11T06:49:02;99222.09;;;13.23;28.69
75505;BME280;64085;54.974;73.410;2023-03-11T06:51:28;99258.94;;;13.52;29.13
75505;BME280;64085;54.974;73.410;2023-03-11T06:53:53;99234.41;;;11.75;30.32
75505;BME280;64085;54.974;73.410;2023-03-11T06:56:21;99232.44;;;11.72;30.20
75505;BME280;64085;54.974;73.410;2023-03-11T06:58:47;99192.06;;;11.64;31.16
75505;BME280;64085;54.974;73.410;2023-03-11T07:01:18;99218.06;;;12.43;29.26
75505;BME280;64085;54.974;73.410;2023-03-11T07:03:45;99216.03;;;13.82;30.02
75505;BME280;64085;54.974;73.410;2023-03-11T07:06:13;99209.22;;;13.94;27.70
75505;BME280;64085;54.974;73.410;2023-03-11T07:08:39;99218.13;;;13.35;28.87
75505;BME280;64085;54.974;73.410;2023-03-11T07:11:08;99227.97;;;12.44;31.88
75505;BME280;64085;54.974;73.410;2023-03-11T07:13:35;99223.88;;;12.02;32.16
75505;BME280;64085;54.974;73.410;2023-03-11T07:16:05;99219.97;;;12.17;32.14
75505;BME280;64085;54.974;73.410;2023-03-11T07:18:32;99234.56;;;10.83;31.97
75505;BME280;64085;54.974;73.410;2023-03-11T07:21:03;99209.28;;;10.36;33.84
75505;BME280;64085;54.974;73.410;2023-03-11T07:23:30;99207.75;;;11.42;35.00
75505;BME280;64085;54.974;73.410;2023-03-11T07:25:56;99204.72;;;10.55;36.32
75505;BME280;64085;54.974;73.410;2023-03-11T13:19:34;98927.72;;;4.87;50.17
75505;BME280;64085;54.974;73.410;2023-03-11T13:22:03;98974.13;;;5.23;50.28
75505;BME280;64085;54.974;73.410;2023-03-11T13:27:12;98957.66;;;5.07;52.80
75505;BME280;64085;54.974;73.410;2023-03-11T13:30:09;98953.88;;;5.28;51.98
75505;BME280;64085;54.974;73.410;2023-03-11T13:38:54;98970.19;;;5.68;52.00
75505;BME280;64085;54.974;73.410;2023-03-11T13:41:34;98964.06;;;5.43;53.82
75505;BME280;64085;54.974;73.410;2023-03-11T13:46:51;98925.28;;;5.41;52.26
75505;BME280;64085;54.974;73.410;2023-03-11T13:51:48;98957.88;;;5.78;53.00
75505;BME280;64085;54.974;73.410;2023-03-11T13:56:53;98950.47;;;5.31;54.70
75505;BME280;64085;54.974;73.410;2023-03-11T13:59:23;98955.94;;;5.62;54.17
75505;BME280;64085;54.974;73.410;2023-03-11T14:01:56;98977.06;;;5.62;53.46
75505;BME280;64085;54.974;73.410;2023-03-11T14:04:29;98974.78;;;5.48;54.40
75505;BME280;64085;54.974;73.410;2023-03-11T14:06:54;98959.81;;;5.14;55.11
75505;BME280;64085;54.974;73.410;2023-03-11T14:09:22;98947.34;;;5.17;55.19
75505;BME280;64085;54.974;73.410;2023-03-11T14:11:52;98964.50;;;5.14;55.26
75505;BME280;64085;54.974;73.410;2023-03-11T14:14:32;98973.06;;;4.84;55.68
75505;BME280;64085;54.974;73.410;2023-03-11T14:16:59;98973.75;;;4.81;56.20
75505;BME280;64085;54.974;73.410;2023-03-11T14:19:28;98979.69;;;4.83;56.50
75505;BME280;64085;54.974;73.410;2023-03-11T14:21:54;98994.00;;;5.20;56.30
75505;BME280;64085;54.974;73.410;2023-03-11T14:24:28;98996.16;;;5.43;55.43
75505;BME280;64085;54.974;73.410;2023-03-11T14:26:55;98996.97;;;5.43;55.55
75505;BME280;64085;54.974;73.410;2023-03-11T14:29:35;99016.72;;;5.21;56.87
75505;BME280;64085;54.974;73.410;2023-03-11T14:34:53;99015.03;;;5.16;56.31
75505;BME280;64085;54.974;73.410;2023-03-11T14:39:50;99022.19;;;5.21;56.53
75505;BME280;64085;54.974;73.410;2023-03-11T14:45:16;99026.28;;;5.27;56.85
75505;BME280;64085;54.974;73.410;2023-03-11T14:50:27;99011.59;;;5.19;56.61
75505;BME280;64085;54.974;73.410;2023-03-11T14:52:58;99032.81;;;5.22;56.65
75505;BME280;64085;54.974;73.410;2023-03-11T14:55:39;99013.28;;;5.24;57.07
75505;BME280;64085;54.974;73.410;2023-03-11T14:58:13;99009.88;;;4.87;56.34
75505;BME280;64085;54.974;73.410;2023-03-11T15:01:16;99026.84;;;5.04;56.94
75505;BME280;64085;54.974;73.410;2023-03-11T15:06:25;99027.34;;;5.22;56.33
75505;BME280;64085;54.974;73.410;2023-03-11T15:09:01;99028.47;;;4.93;56.67
75505;BME280;64085;54.974;73.410;2023-03-11T15:11:27;99032.06;;;4.82;57.32
75505;BME280;64085;54.974;73.410;2023-03-11T15:14:07;99050.00;;;4.67;57.68
75505;BME280;64085;54.974;73.410;2023-03-11T15:16:36;99024.88;;;4.77;57.46
75505;BME280;64085;54.974;73.410;2023-03-11T15:19:29;99032.28;;;4.76;57.90
75505;BME280;64085;54.974;73.410;2023-03-11T15:22:19;99033.47;;;4.63;57.50
75505;BME280;64085;54.974;73.410;2023-03-11T15:24:52;99034.56;;;4.74;57.70
75505;BME280;64085;54.974;73.410;2023-03-11T15:27:35;99044.88;;;4.65;58.02
75505;BME280;64085;54.974;73.410;2023-03-11T15:30:29;99047.25;;;5.07;57.99
75505;BME280;64085;54.974;73.410;2023-03-11T15:32:56;99017.66;;;5.13;57.37
75505;BME280;64085;54.974;73.410;2023-03-11T15:35:25;99055.59;;;5.39;57.48
75505;BME280;64085;54.974;73.410;2023-03-11T15:38:21;99041.72;;;5.19;57.62
75505;BME280;64085;54.974;73.410;2023-03-11T15:40:52;99021.69;;;5.03;56.57
75505;BME280;64085;54.974;73.410;2023-03-11T15:43:22;99049.72;;;5.12;56.31
75505;BME280;64085;54.974;73.410;2023-03-11T15:45:50;99041.56;;;5.00;57.02
75505;BME280;64085;54.974;73.410;2023-03-11T15:48:19;99050.94;;;5.27;56.25
75505;BME280;64085;54.974;73.410;2023-03-11T15:50:50;99055.59;;;5.39;56.43
75505;BME280;64085;54.974;73.410;2023-03-11T15:53:16;99059.91;;;5.40;57.11
75505;BME280;64085;54.974;73.410;2023-03-11T15:55:42;99058.25;;;5.51;56.38
75505;BME280;64085;54.974;73.410;2023-03-11T15:58:10;99053.25;;;5.84;55.96
75505;BME280;64085;54.974;73.410;2023-03-11T16:00:37;99060.94;;;5.79;56.62
75505;BME280;64085;54.974;73.410;2023-03-11T16:03:04;99036.47;;;5.42;56.24
75505;BME280;64085;54.974;73.410;2023-03-11T16:05:30;99063.59;;;5.31;56.45
75505;BME280;64085;54.974;73.410;2023-03-11T16:07:57;99068.81;;;5.64;55.71
75505;BME280;64085;54.974;73.410;2023-03-11T16:10:24;99069.63;;;5.81;55.92
75505;BME280;64085;54.974;73.410;2023-03-11T16:12:53;99034.84;;;5.69;55.55
75505;BME280;64085;54.974;73.410;2023-03-11T16:17:54;99068.91;;;5.68;55.03
75505;BME280;64085;54.974;73.410;2023-03-11T16:20:22;99080.97;;;5.95;55.81
75505;BME280;64085;54.974;73.410;2023-03-11T16:22:50;99078.28;;;5.83;55.60
75505;BME280;64085;54.974;73.410;2023-03-11T16:25:30;99085.59;;;5.91;56.43
75505;BME280;64085;54.974;73.410;2023-03-11T16:27:58;99084.28;;;5.88;55.63
75505;BME280;64085;54.974;73.410;2023-03-11T16:30:26;99084.69;;;6.03;55.18
75505;BME280;64085;54.974;73.410;2023-03-11T16:32:53;99072.31;;;5.93;55.34
75505;BME280;64085;54.974;73.410;2023-03-11T16:35:22;99090.66;;;5.77;55.55
75505;BME280;64085;54.974;73.410;2023-03-11T16:37:48;99088.34;;;5.79;56.92
75505;BME280;64085;54.974;73.410;2023-03-11T16:40:17;99098.19;;;5.80;55.49
75505;BME280;64085;54.974;73.410;2023-03-11T16:42:45;99103.84;;;5.87;55.74
75505;BME280;64085;54.974;73.410;2023-03-11T16:45:15;99103.28;;;6.09;56.73
75505;BME280;64085;54.974;73.410;2023-03-11T16:47:41;99101.53;;;6.17;55.23
75505;BME280;64085;54.974;73.410;2023-03-11T16:50:10;99082.75;;;6.19;55.32
75505;BME280;64085;54.974;73.410;2023-03-11T16:52:37;99090.63;;;6.05;55.17
75505;BME280;64085;54.974;73.410;2023-03-11T16:55:03;99104.81;;;6.07;55.80
75505;BME280;64085;54.974;73.410;2023-03-11T16:57:30;99111.72;;;6.16;56.75
75505;BME280;64085;54.974;73.410;2023-03-11T16:59:56;99105.34;;;6.28;55.42
75505;BME280;64085;54.974;73.410;2023-03-11T17:02:22;99095.25;;;6.16;55.29
75505;BME280;64085;54.974;73.410;2023-03-11T17:04:48;99114.09;;;6.34;55.18
75505;BME280;64085;54.974;73.410;2023-03-11T17:07:14;99120.63;;;6.29;56.03
75505;BME280;64085;54.974;73.410;2023-03-11T17:09:39;99116.75;;;6.46;56.74
75505;BME280;64085;54.974;73.410;2023-03-11T17:12:05;99127.53;;;6.39;54.68
75505;BME280;64085;54.974;73.410;2023-03-11T17:14:31;99130.75;;;6.41;55.44
75505;BME280;64085;54.974;73.410;2023-03-11T17:16:58;99142.72;;;6.33;54.75
75505;BME280;64085;54.974;73.410;2023-03-11T17:19:24;99137.84;;;6.42;55.81
75505;BME280;64085;54.974;73.410;2023-03-11T17:21:50;99143.22;;;6.38;55.33
75505;BME280;64085;54.974;73.410;2023-03-11T17:24:16;99119.66;;;6.37;55.78
75505;BME280;64085;54.974;73.410;2023-03-11T17:26:41;99133.50;;;6.57;55.78
75505;BME280;64085;54.974;73.410;2023-03-11T17:29:07;99101.53;;;6.33;55.94
75505;BME280;64085;54.974;73.410;2023-03-11T17:31:33;99153.41;;;6.69;55.56
75505;BME280;64085;54.974;73.410;2023-03-11T17:33:59;99147.28;;;6.60;54.89
75505;BME280;64085;54.974;73.410;2023-03-11T17:36:25;99166.69;;;6.20;55.75
75505;BME280;64085;54.974;73.410;2023-03-11T17:38:53;99156.00;;;6.31;55.38
75505;BME280;64085;54.974;73.410;2023-03-11T17:41:19;99171.03;;;6.53;55.95
75505;BME280;64085;54.974;73.410;2023-03-11T17:43:46;99189.09;;;6.54;55.45
75505;BME280;64085;54.974;73.410;2023-03-11T17:46:14;99187.50;;;6.53;55.51
75505;BME280;64085;54.974;73.410;2023-03-11T17:48:41;99193.91;;;6.57;55.06
75505;BME280;64085;54.974;73.410;2023-03-11T17:51:08;99200.38;;;6.48;55.52
75505;BME280;64085;54.974;73.410;2023-03-11T17:53:36;99201.94;;;6.34;55.70
75505;BME280;64085;54.974;73.410;2023-03-11T17:56:03;99210.69;;;6.55;56.03
75505;BME280;64085;54.974;73.410;2023-03-11T17:58:30;99212.38;;;6.44;56.18
75505;BME280;64085;54.974;73.410;2023-03-11T18:00:56;99181.66;;;6.54;56.26
75505;BME280;64085;54.974;73.410;2023-03-11T18:03:23;99201.56;;;6.35;55.45
75505;BME280;64085;54.974;73.410;2023-03-11T18:06:00;99212.03;;;6.45;56.03
75505;BME280;64085;54.974;73.410;2023-03-11T18:08:26;99214.88;;;6.49;55.48
75505;BME280;64085;54.974;73.410;2023-03-11T18:10:53;99200.44;;;6.52;55.78
75505;BME280;64085;54.974;73.410;2023-03-11T18:13:20;99213.78;;;6.38;55.52
75505;BME280;64085;54.974;73.410;2023-03-11T18:15:51;99218.78;;;6.48;55.47
75505;BME280;64085;54.974;73.410;2023-03-11T18:18:20;99211.22;;;6.29;56.38
75505;BME280;64085;54.974;73.410;2023-03-11T18:20:45;99212.38;;;6.28;55.86
75505;BME280;64085;54.974;73.410;2023-03-11T18:23:11;99178.34;;;6.01;56.14
75505;BME280;64085;54.974;73.410;2023-03-11T18:25:37;99223.91;;;6.34;56.27
75505;BME280;64085;54.974;73.410;2023-03-11T18:28:02;99216.22;;;6.39;56.11
75505;BME280;64085;54.974;73.410;2023-03-11T18:30:28;99208.28;;;6.06;56.58
75505;BME280;64085;54.974;73.410;2023-03-11T18:32:54;99226.25;;;6.19;57.25
75505;BME280;64085;54.974;73.410;2023-03-11T18:35:19;99230.81;;;6.43;56.33
75505;BME280;64085;54.974;73.410;2023-03-11T18:37:46;99222.38;;;6.36;55.64
75505;BME280;64085;54.974;73.410;2023-03-11T18:40:12;99235.72;;;6.22;56.49
75505;BME280;64085;54.974;73.410;2023-03-11T18:42:38;99239.78;;;6.12;56.68
75505;BME280;64085;54.974;73.410;2023-03-11T18:45:04;99230.91;;;5.63;57.87
75505;BME280;64085;54.974;73.410;2023-03-11T18:47:33;99239.69;;;6.09;57.57
75505;BME280;64085;54.974;73.410;2023-03-11T18:49:59;99250.03;;;6.43;56.87
75505;BME280;64085;54.974;73.410;2023-03-11T18:52:25;99240.38;;;6.34;56.27
75505;BME280;64085;54.974;73.410;2023-03-11T18:54:51;99244.63;;;6.31;56.36
75505;BME280;64085;54.974;73.410;2023-03-11T18:57:16;99247.09;;;6.36;56.35
75505;BME280;64085;54.974;73.410;2023-03-11T18:59:42;99253.19;;;6.30;55.43
75505;BME280;64085;54.974;73.410;2023-03-11T19:02:09;99253.44;;;6.25;55.98
75505;BME280;64085;54.974;73.410;2023-03-11T19:04:35;99259.81;;;6.29;56.36
75505;BME280;64085;54.974;73.410;2023-03-11T19:07:01;99254.69;;;6.27;56.17
75505;BME280;64085;54.974;73.410;2023-03-11T19:09:26;99262.72;;;6.20;56.07
75505;BME280;64085;54.974;73.410;2023-03-11T19:11:52;99265.09;;;6.21;55.97
75505;BME280;64085;54.974;73.410;2023-03-11T19:14:17;99270.00;;;6.28;56.23
75505;BME280;64085;54.974;73.410;2023-03-11T19:16:43;99249.94;;;5.84;56.15
75505;BME280;64085;54.974;73.410;2023-03-11T19:19:09;99277.59;;;5.91;56.92
75505;BME280;64085;54.974;73.410;2023-03-11T19:21:35;99249.06;;;5.68;56.57
75505;BME280;64085;54.974;73.410;2023-03-11T19:24:00;99288.34;;;5.72;56.84
75505;BME280;64085;54.974;73.410;2023-03-11T19:26:26;99300.25;;;6.16;56.15
75505;BME280;64085;54.974;73.410;2023-03-11T19:28:52;99289.31;;;6.04;56.06
75505;BME280;64085;54.974;73.410;2023-03-11T19:31:18;99301.88;;;6.05;56.43
75505;BME280;64085;54.974;73.410;2023-03-11T19:33:43;99302.16;;;6.00;56.33
75505;BME280;64085;54.974;73.410;2023-03-11T19:36:11;99309.81;;;5.94;56.01